Time;durP1;ratioP1;P1;durP2;ratioP2;P2;SDS_P1;SDS_P2;PMS_P1;PMS_P2;Temp;Humidity;BMP_temperature;BMP_pressure;BME280_temperature;BME280_humidity;BME280_pressure;Samples;Min_cycle;Max_cycle;Signal;HPM_P1;HPM_P2
2022/05/29 00:01:53;;;;;;;5.93;1.77;;;13.90;97.90;;;;;;5067553;28;20115;-70
2022/05/29 00:04:19;;;;;;;7.10;1.73;;;13.90;97.70;;;;;;5073350;28;20099;-70
2022/05/29 00:06:49;;;;;;;7.63;1.95;;;13.90;98.10;;;;;;5056051;28;20071;-70
2022/05/29 00:09:18;;;;;;;7.68;1.58;;;13.90;98.10;;;;;;5055705;28;20037;-70
2022/05/29 00:11:44;;;;;;;10.75;1.88;;;13.80;97.00;;;;;;5060933;28;20028;-70
2022/05/29 00:14:10;;;;;;;7.93;1.98;;;13.80;97.90;;;;;;5075139;28;20114;-70
2022/05/29 00:16:36;;;;;;;4.97;1.50;;;13.80;97.90;;;;;;5068838;28;20497;-71
2022/05/29 00:19:02;;;;;;;5.18;1.70;;;13.70;98.20;;;;;;5055356;28;20037;-70
2022/05/29 00:21:33;;;;;;;3.25;1.83;;;13.70;98.20;;;;;;5055656;28;20485;-70
2022/05/29 00:23:59;;;;;;;7.65;1.67;;;13.70;98.30;;;;;;5057025;28;20029;-70
2022/05/29 00:26:25;;;;;;;3.42;1.83;;;13.50;98.70;;;;;;5072285;28;20496;-70
2022/05/29 00:28:51;;;;;;;3.15;1.50;;;13.50;98.30;;;;;;5055736;28;20029;-70
2022/05/29 00:31:17;;;;;;;5.15;1.50;;;13.40;97.80;;;;;;5055601;28;20388;-70
2022/05/29 00:33:43;;;;;;;8.68;2.00;;;13.40;98.10;;;;;;5069621;28;20090;-70
2022/05/29 00:36:11;;;;;;;7.25;2.00;;;13.30;98.50;;;;;;5068920;28;20057;-70
2022/05/29 00:38:41;;;;;;;6.32;1.77;;;13.40;98.30;;;;;;5074714;28;20099;-70
2022/05/29 00:41:13;;;;;;;6.40;1.90;;;13.30;98.10;;;;;;5072970;28;20114;-71
2022/05/29 00:43:38;;;;;;;4.83;2.27;;;13.30;97.70;;;;;;5054793;28;20116;-70
2022/05/29 00:46:05;;;;;;;7.57;1.88;;;13.20;99.30;;;;;;5054698;28;20116;-70
2022/05/29 00:48:31;;;;;;;6.07;2.38;;;13.20;98.00;;;;;;5054702;28;20029;-70
2022/05/29 00:51:01;;;;;;;7.40;2.50;;;13.20;99.00;;;;;;5058143;28;20048;-70
2022/05/29 00:53:29;;;;;;;6.90;2.35;;;13.20;98.10;;;;;;5072520;28;20039;-70
2022/05/29 00:56:05;;;;;;;6.63;2.30;;;13.10;97.70;;;;;;5068221;28;20083;-70
2022/05/29 00:58:31;;;;;;;9.95;2.70;;;13.10;97.80;;;;;;5054878;28;20021;-70
2022/05/29 01:00:57;;;;;;;7.60;2.13;;;13.00;97.50;;;;;;5055073;28;20528;-70
2022/05/29 01:03:23;;;;;;;6.80;2.28;;;12.90;97.60;;;;;;5055072;28;20029;-70
2022/05/29 01:05:49;;;;;;;4.10;2.10;;;12.90;98.10;;;;;;5055047;28;20048;-70
2022/05/29 01:08:21;;;;;;;9.23;2.72;;;12.90;98.40;;;;;;5054254;28;20045;-70
2022/05/29 01:11:07;;;;;;;6.38;2.22;;;12.90;97.90;;;;;;5054755;28;20063;-73
2022/05/29 01:14:12;;;;;;;10.68;2.88;;;12.90;98.40;;;;;;5058104;28;20123;-70
2022/05/29 01:17:02;;;;;;;9.27;2.33;;;12.80;98.30;;;;;;5054772;28;20069;-70
2022/05/29 01:19:54;;;;;;;8.13;2.67;;;12.80;98.30;;;;;;5054374;28;20036;-70
2022/05/29 01:23:14;;;;;;;9.10;2.40;;;12.80;98.50;;;;;;5067272;28;20032;-70
2022/05/29 01:25:56;;;;;;;7.45;2.53;;;12.80;98.50;;;;;;5052353;28;20029;-71
2022/05/29 01:28:53;;;;;;;7.47;2.80;;;12.80;99.00;;;;;;5072309;28;20507;-70
2022/05/29 01:31:46;;;;;;;6.38;2.60;;;12.80;98.80;;;;;;5072560;28;20032;-70
2022/05/29 01:34:12;;;;;;;6.07;2.70;;;12.70;99.30;;;;;;5074554;28;20047;-70
2022/05/29 01:37:18;;;;;;;7.68;3.10;;;12.70;98.60;;;;;;5062015;28;20025;-70
2022/05/29 01:40:09;;;;;;;6.50;2.75;;;12.60;99.50;;;;;;5072584;28;20185;-70
2022/05/29 01:42:54;;;;;;;6.68;2.72;;;12.60;99.90;;;;;;5074742;28;20029;-70
2022/05/29 01:45:54;;;;;;;4.60;2.50;;;12.60;99.40;;;;;;5054184;28;20100;-70
2022/05/29 01:48:49;;;;;;;8.30;2.75;;;12.60;99.30;;;;;;5069521;28;20886;-71
2022/05/29 01:51:18;;;;;;;7.95;3.10;;;12.60;99.20;;;;;;5049908;28;20127;-70
2022/05/29 01:53:53;;;;;;;6.43;3.30;;;12.50;99.20;;;;;;5054070;28;20454;-70
2022/05/29 01:56:27;;;;;;;7.40;2.80;;;12.50;99.70;;;;;;5052972;28;20028;-70
2022/05/29 01:58:58;;;;;;;7.57;3.03;;;12.50;99.80;;;;;;5054197;28;20512;-70
2022/05/29 02:01:30;;;;;;;5.28;2.45;;;12.50;99.70;;;;;;5054251;28;20103;-70
2022/05/29 02:03:57;;;;;;;8.15;3.25;;;12.40;99.60;;;;;;5070667;28;20052;-70
2022/05/29 02:09:25;;;;;;;6.82;2.97;;;12.40;99.70;;;;;;5073821;28;20507;-70
2022/05/29 02:11:55;;;;;;;7.95;2.95;;;12.40;99.50;;;;;;5073397;28;20029;-70
2022/05/29 02:14:26;;;;;;;6.05;3.25;;;12.40;99.90;;;;;;5072668;28;20489;-71
2022/05/29 02:17:03;;;;;;;8.77;3.63;;;12.30;99.80;;;;;;5061946;28;20035;-70
2022/05/29 02:19:35;;;;;;;9.75;4.10;;;12.30;99.90;;;;;;5053559;28;20074;-71
2022/05/29 02:22:27;;;;;;;8.18;3.53;;;12.30;99.90;;;;;;5053793;28;20461;-70
2022/05/29 02:24:57;;;;;;;11.13;3.60;;;12.30;99.90;;;;;;5069705;28;20028;-70
2022/05/29 02:27:35;;;;;;;5.60;3.53;;;12.20;99.90;;;;;;5073402;28;20100;-71
2022/05/29 02:30:03;;;;;;;5.70;3.20;;;12.20;99.90;;;;;;5073556;28;20111;-70
2022/05/29 02:33:10;;;;;;;5.70;3.45;;;12.20;99.90;;;;;;5071641;28;20035;-70
2022/05/29 02:36:19;;;;;;;8.82;3.88;;;12.20;99.90;;;;;;5053157;28;20025;-70
2022/05/29 02:38:58;;;;;;;5.65;3.10;;;12.20;99.90;;;;;;5052983;28;20053;-70
2022/05/29 02:41:48;;;;;;;7.03;3.15;;;12.30;99.90;;;;;;5053284;28;20033;-73
2022/05/29 02:44:49;;;;;;;4.68;3.10;;;12.20;99.90;;;;;;5052833;28;20091;-70
2022/05/29 02:47:23;;;;;;;5.78;2.83;;;12.20;99.90;;;;;;5065068;28;20485;-70
2022/05/29 02:50:18;;;;;;;4.90;2.88;;;12.20;99.90;;;;;;5053075;28;20036;-71
2022/05/29 02:52:44;;;;;;;11.93;3.47;;;12.30;99.90;;;;;;5053308;28;20066;-73
2022/05/29 02:55:11;;;;;;;7.97;3.35;;;12.30;99.90;;;;;;5070660;28;20025;-72
2022/05/29 02:57:37;;;;;;;6.63;2.70;;;12.20;99.90;;;;;;5063872;28;20025;-72
2022/05/29 03:00:11;;;;;;;12.80;3.60;;;12.20;99.90;;;;;;5053210;28;20031;-72
2022/05/29 03:02:48;;;;;;;7.88;3.47;;;12.20;99.90;;;;;;5051200;28;20470;-72
2022/05/29 03:05:26;;;;;;;4.60;3.10;;;12.20;99.90;;;;;;5070598;28;20063;-71
2022/05/29 03:08:11;;;;;;;6.05;3.97;;;12.20;99.90;;;;;;5071971;28;20044;-71
2022/05/29 03:10:45;;;;;;;15.20;4.68;;;12.20;99.90;;;;;;5052918;28;20381;-72
2022/05/29 03:13:51;;;;;;;8.50;3.67;;;12.30;99.90;;;;;;5053078;28;20504;-71
2022/05/29 03:16:43;;;;;;;12.00;3.40;;;12.20;99.90;;;;;;5048295;28;20473;-71
2022/05/29 03:19:30;;;;;;;6.80;3.58;;;12.20;99.90;;;;;;5013706;28;20045;-71
2022/05/29 03:22:11;;;;;;;7.75;4.20;;;12.20;99.90;;;;;;5052155;28;20381;-71
2022/05/29 03:24:41;;;;;;;11.82;3.70;;;12.20;99.90;;;;;;5060329;28;20017;-71
2022/05/29 03:27:34;;;;;;;12.18;3.65;;;12.20;99.90;;;;;;5088276;28;20031;-71
2022/05/29 03:30:14;;;;;;;9.25;3.42;;;12.30;99.90;;;;;;5071026;28;20075;-71
2022/05/29 03:32:41;;;;;;;10.30;4.43;;;12.30;99.90;;;;;;5072628;28;20021;-71
2022/05/29 03:35:35;;;;;;;8.18;3.83;;;12.30;99.90;;;;;;5073021;28;20354;-71
2022/05/29 03:38:03;;;;;;;9.77;3.50;;;12.30;99.90;;;;;;5070628;28;20048;-71
2022/05/29 03:40:31;;;;;;;6.95;3.67;;;12.20;99.90;;;;;;5052583;28;20063;-71
2022/05/29 03:42:57;;;;;;;11.30;3.83;;;12.30;99.90;;;;;;5052855;28;20036;-72
2022/05/29 03:45:24;;;;;;;9.52;4.10;;;12.30;99.90;;;;;;5052588;28;20086;-72
2022/05/29 03:47:49;;;;;;;10.80;3.63;;;12.30;99.90;;;;;;5051699;28;20039;-71
2022/05/29 03:50:18;;;;;;;10.82;3.83;;;12.30;99.90;;;;;;5052656;28;20025;-72
2022/05/29 03:52:44;;;;;;;9.38;3.40;;;12.30;99.90;;;;;;5052582;28;20035;-71
2022/05/29 03:55:11;;;;;;;10.43;3.30;;;12.30;99.90;;;;;;5062559;28;20507;-72
2022/05/29 03:57:37;;;;;;;12.10;4.07;;;12.40;99.90;;;;;;5072031;28;20024;-71
2022/05/29 04:00:06;;;;;;;8.60;4.05;;;12.40;99.90;;;;;;5072772;28;20024;-72
2022/05/29 04:02:32;;;;;;;10.60;4.50;;;12.40;99.90;;;;;;5071697;28;20016;-71
2022/05/29 04:04:57;;;;;;;10.20;4.68;;;12.40;99.90;;;;;;5055199;28;20040;-72
2022/05/29 04:12:03;;;;;;;10.07;3.90;;;12.40;99.90;;;;;;5051833;28;20096;-71
2022/05/29 04:12:54;;;;;;;6.47;3.85;;;12.40;99.90;;;;;;5055956;28;20045;-72
2022/05/29 04:15:20;;;;;;;13.98;4.20;;;12.40;99.90;;;;;;5055652;28;20021;-71
2022/05/29 04:17:45;;;;;;;8.23;4.13;;;12.40;99.90;;;;;;5055560;28;20400;-72
2022/05/29 04:20:11;;;;;;;8.60;4.00;;;12.40;99.90;;;;;;5057114;28;20075;-72
2022/05/29 04:22:37;;;;;;;10.25;3.85;;;12.40;99.90;;;;;;5055718;28;20024;-72
2022/05/29 04:25:02;;;;;;;6.18;4.05;;;12.40;99.90;;;;;;5067329;28;20037;-72
2022/05/29 04:27:28;;;;;;;9.27;4.03;;;12.50;99.90;;;;;;5067797;28;20033;-72
2022/05/29 04:29:54;;;;;;;5.25;3.67;;;12.50;99.90;;;;;;5055766;28;20469;-72
2022/05/29 04:35:04;;;;;;;10.38;3.70;;;12.50;99.90;;;;;;5075978;28;20536;-71
2022/05/29 04:37:30;;;;;;;9.77;3.88;;;12.50;99.90;;;;;;5075134;28;20020;-72
2022/05/29 04:39:55;;;;;;;11.38;4.32;;;12.50;99.90;;;;;;5064412;28;20530;-72
2022/05/29 04:42:21;;;;;;;7.53;3.80;;;12.50;99.90;;;;;;5055551;28;20033;-71
2022/05/29 04:44:47;;;;;;;13.23;4.20;;;12.50;99.90;;;;;;5055515;28;20473;-72
2022/05/29 04:47:13;;;;;;;11.88;4.72;;;12.50;99.90;;;;;;5055398;28;20025;-72
2022/05/29 04:49:39;;;;;;;11.52;4.72;;;12.50;99.90;;;;;;5055437;28;20389;-71
2022/05/29 04:52:06;;;;;;;6.70;3.88;;;12.50;99.90;;;;;;5065337;28;20115;-71
2022/05/29 04:54:37;;;;;;;12.07;4.40;;;12.50;99.90;;;;;;5075342;28;20589;-72
2022/05/29 04:57:08;;;;;;;11.07;4.50;;;12.60;99.90;;;;;;5075337;28;20024;-72
2022/05/29 04:59:35;;;;;;;13.80;4.03;;;12.60;99.90;;;;;;5074556;28;20071;-71
2022/05/29 05:02:02;;;;;;;9.00;4.57;;;12.60;99.90;;;;;;5074178;28;20017;-72
2022/05/29 05:04:28;;;;;;;9.90;4.32;;;12.60;99.90;;;;;;5073924;28;20021;-72
2022/05/29 05:06:55;;;;;;;9.15;4.80;;;12.70;99.90;;;;;;5074834;28;20028;-72
2022/05/29 05:09:21;;;;;;;10.43;4.90;;;12.70;99.90;;;;;;5068750;28;20044;-71
2022/05/29 05:11:47;;;;;;;10.82;4.53;;;12.70;99.90;;;;;;5055157;28;20465;-72
2022/05/29 05:14:13;;;;;;;13.77;4.38;;;12.80;99.90;;;;;;5054297;28;20036;-72
2022/05/29 05:16:39;;;;;;;7.57;4.38;;;12.80;99.90;;;;;;5054792;28;20416;-72
2022/05/29 05:19:05;;;;;;;10.98;4.80;;;12.80;99.90;;;;;;5054854;28;20037;-72
2022/05/29 05:21:30;;;;;;;14.55;5.05;;;12.80;99.90;;;;;;5054523;28;20021;-72
2022/05/29 05:23:56;;;;;;;12.57;4.50;;;12.80;99.90;;;;;;5057067;28;20436;-72
2022/05/29 05:26:21;;;;;;;11.70;5.05;;;12.80;99.90;;;;;;5074818;28;20032;-72
2022/05/29 05:28:47;;;;;;;11.60;4.38;;;12.80;99.90;;;;;;5073793;28;20044;-72
2022/05/29 05:31:13;;;;;;;12.60;5.53;;;12.80;99.90;;;;;;5074717;28;20020;-72
2022/05/29 05:33:39;;;;;;;16.80;5.97;;;12.80;99.90;;;;;;5074249;28;20028;-71
2022/05/29 05:36:05;;;;;;;12.88;5.22;;;12.80;99.90;;;;;;5073712;28;20498;-72
2022/05/29 05:38:31;;;;;;;13.93;5.22;;;12.80;99.90;;;;;;5074424;28;20021;-72
2022/05/29 05:40:57;;;;;;;11.32;5.65;;;12.80;99.90;;;;;;5057612;28;20029;-72
2022/05/29 05:43:23;;;;;;;9.73;5.15;;;12.80;99.90;;;;;;5053955;28;20029;-72
2022/05/29 05:45:49;;;;;;;10.02;5.72;;;12.80;99.90;;;;;;5054455;28;20107;-72
2022/05/29 05:48:16;;;;;;;12.02;6.18;;;12.70;99.90;;;;;;5054188;28;20374;-73
2022/05/29 05:50:42;;;;;;;16.25;5.53;;;12.70;99.90;;;;;;5054328;28;20021;-72
2022/05/29 05:53:08;;;;;;;12.00;6.28;;;12.80;99.90;;;;;;5054347;28;20457;-73
2022/05/29 05:55:36;;;;;;;14.18;5.85;;;12.80;99.90;;;;;;5054123;28;20079;-72
2022/05/29 05:58:03;;;;;;;9.95;5.90;;;12.80;99.90;;;;;;5054073;28;20424;-72
2022/05/29 06:00:29;;;;;;;13.00;6.20;;;12.80;99.90;;;;;;5073891;28;20465;-72
2022/05/29 06:02:54;;;;;;;9.38;5.57;;;12.80;99.90;;;;;;5073937;28;20022;-72
2022/05/29 06:05:20;;;;;;;11.98;6.28;;;12.80;99.90;;;;;;5074055;28;20025;-73
2022/05/29 06:07:46;;;;;;;12.23;6.57;;;12.90;99.90;;;;;;5073527;28;20018;-73
2022/05/29 06:10:12;;;;;;;15.45;6.75;;;13.00;99.90;;;;;;5064811;28;20448;-74
2022/05/29 06:12:38;;;;;;;11.45;6.22;;;13.00;99.90;;;;;;5067705;28;20020;-73
2022/05/29 06:15:06;;;;;;;13.88;6.95;;;13.10;99.90;;;;;;5073607;28;20123;-72
2022/05/29 06:17:32;;;;;;;14.35;6.25;;;13.10;99.90;;;;;;5072881;28;20031;-72
2022/05/29 06:19:58;;;;;;;12.23;5.90;;;13.20;99.90;;;;;;5072704;28;20024;-72
2022/05/29 06:22:23;;;;;;;12.05;6.15;;;13.20;99.90;;;;;;5073479;28;20024;-73
2022/05/29 06:24:49;;;;;;;13.68;6.20;;;13.20;99.90;;;;;;5087820;28;20165;-72
2022/05/29 06:27:15;;;;;;;12.50;6.05;;;13.20;99.90;;;;;;5073003;28;20027;-74
2022/05/29 06:29:40;;;;;;;12.57;6.00;;;13.20;99.90;;;;;;5071903;28;20040;-73
2022/05/29 06:32:08;;;;;;;11.35;5.63;;;13.20;99.90;;;;;;5072986;28;20025;-73
2022/05/29 06:34:35;;;;;;;7.05;5.55;;;13.20;99.90;;;;;;5055428;28;20511;-73
2022/05/29 06:37:08;;;;;;;11.88;5.50;;;13.10;99.90;;;;;;5061687;28;20024;-73
2022/05/29 06:39:35;;;;;;;6.97;5.15;;;13.20;99.90;;;;;;5062314;28;20024;-73
2022/05/29 06:42:00;;;;;;;10.07;4.75;;;13.20;99.90;;;;;;5063725;28;20019;-73
2022/05/29 06:44:26;;;;;;;12.38;6.15;;;13.10;99.90;;;;;;5062354;28;20021;-73
2022/05/29 06:46:52;;;;;;;10.23;5.28;;;13.20;99.90;;;;;;5059807;28;20525;-73
2022/05/29 06:49:18;;;;;;;12.68;5.30;;;13.30;99.90;;;;;;5056882;28;20039;-73
2022/05/29 06:51:44;;;;;;;11.63;5.63;;;13.30;99.90;;;;;;5073274;28;20047;-73
2022/05/29 06:54:10;;;;;;;11.45;5.53;;;13.30;99.90;;;;;;5072168;28;20025;-73
2022/05/29 06:56:35;;;;;;;11.98;5.97;;;13.30;99.90;;;;;;5057303;28;20028;-74
2022/05/29 06:59:03;;;;;;;12.65;4.70;;;13.40;99.90;;;;;;5053320;28;20037;-74
2022/05/29 07:07:14;;;;;;;11.45;5.13;;;13.60;99.90;;;;;;5053162;28;20032;-73
2022/05/29 07:09:40;;;;;;;8.60;4.30;;;13.70;99.90;;;;;;5052626;28;20029;-72
2022/05/29 07:12:06;;;;;;;9.27;4.82;;;13.70;99.90;;;;;;5053921;28;20079;-72
2022/05/29 07:14:35;;;;;;;9.20;3.70;;;13.80;99.90;;;;;;5051769;28;20037;-72
2022/05/29 07:17:01;;;;;;;7.95;4.30;;;13.80;99.90;;;;;;5053011;28;20660;-72
2022/05/29 07:19:28;;;;;;;9.07;4.18;;;13.80;99.90;;;;;;5052786;28;20036;-72
2022/05/29 07:21:57;;;;;;;5.80;3.75;;;13.70;99.90;;;;;;5052745;28;20033;-72
2022/05/29 07:24:24;;;;;;;10.13;4.20;;;13.80;99.90;;;;;;5058655;28;20031;-73
2022/05/29 07:26:50;;;;;;;8.85;3.45;;;13.80;99.90;;;;;;5070670;28;20035;-72
2022/05/29 07:29:17;;;;;;;9.27;3.55;;;13.80;99.90;;;;;;5072700;28;20033;-72
2022/05/29 07:31:44;;;;;;;8.00;4.13;;;13.80;99.90;;;;;;5065735;28;20085;-71
2022/05/29 07:34:10;;;;;;;7.45;3.47;;;13.80;99.90;;;;;;5072882;28;20053;-71
2022/05/29 07:36:36;;;;;;;8.73;3.63;;;13.80;99.90;;;;;;5079615;28;20037;-71
2022/05/29 07:39:02;;;;;;;7.00;3.80;;;13.80;99.90;;;;;;5052484;28;20083;-71
2022/05/29 07:44:12;;;;;;;6.40;3.75;;;13.90;99.90;;;;;;5055570;28;20095;-71
2022/05/29 07:46:37;;;;;;;6.25;3.80;;;14.00;99.90;;;;;;5060917;28;20041;-70
2022/05/29 07:49:03;;;;;;;10.27;3.70;;;14.00;99.90;;;;;;5056570;28;20051;-71
2022/05/29 07:51:29;;;;;;;7.80;3.85;;;14.00;99.90;;;;;;5055389;28;20051;-72
2022/05/29 07:53:57;;;;;;;7.78;3.80;;;14.20;99.90;;;;;;5063206;28;20107;-71
2022/05/29 07:56:25;;;;;;;8.13;4.07;;;14.30;99.90;;;;;;5076444;28;20036;-72
2022/05/29 07:58:51;;;;;;;9.10;3.90;;;14.40;99.90;;;;;;5076296;28;20028;-71
2022/05/29 08:01:16;;;;;;;8.68;3.85;;;14.40;99.90;;;;;;5076315;28;20499;-71
2022/05/29 08:03:42;;;;;;;15.30;4.00;;;14.40;99.90;;;;;;5075933;28;20488;-71
2022/05/29 08:06:08;;;;;;;11.68;4.70;;;14.50;99.90;;;;;;5075344;28;20040;-72
2022/05/29 08:08:35;;;;;;;11.68;4.65;;;14.50;99.90;;;;;;5075037;28;20485;-72
2022/05/29 08:11:02;;;;;;;7.72;3.60;;;14.50;99.90;;;;;;5067953;28;20025;-72
2022/05/29 08:13:29;;;;;;;11.75;3.78;;;14.40;99.90;;;;;;5054925;28;20439;-72
2022/05/29 08:15:56;;;;;;;8.27;4.47;;;14.40;99.90;;;;;;5056035;28;20048;-72
2022/05/29 08:18:22;;;;;;;8.85;4.72;;;14.50;99.90;;;;;;5066362;28;20078;-71
2022/05/29 08:20:48;;;;;;;10.55;4.35;;;14.50;99.90;;;;;;5076099;28;20032;-71
2022/05/29 08:23:13;;;;;;;9.82;4.75;;;14.60;99.90;;;;;;5074761;28;20025;-72
2022/05/29 08:31:07;;;;;;;11.07;4.43;;;15.00;99.90;;;;;;5076205;28;20562;-71
2022/05/29 08:33:35;;;;;;;7.88;4.05;;;15.10;99.90;;;;;;5075860;28;20068;-72
2022/05/29 08:36:06;;;;;;;11.93;4.75;;;15.20;99.90;;;;;;5071535;28;20074;-72
2022/05/29 08:38:33;;;;;;;10.80;4.32;;;15.20;99.90;;;;;;5075106;28;20033;-72
2022/05/29 08:41:04;;;;;;;13.52;4.32;;;15.20;99.90;;;;;;5067820;28;20029;-72
2022/05/29 08:43:36;;;;;;;9.32;4.07;;;15.20;99.90;;;;;;5055424;28;20040;-72
2022/05/29 08:46:11;;;;;;;9.70;4.13;;;15.20;99.90;;;;;;5055626;28;20094;-72
2022/05/29 08:48:37;;;;;;;9.23;4.20;;;15.10;99.90;;;;;;5055379;28;20037;-72
2022/05/29 08:51:03;;;;;;;10.00;4.40;;;15.10;99.90;;;;;;5055340;28;20029;-72
2022/05/29 08:53:49;;;;;;;13.63;4.43;;;15.10;99.90;;;;;;5055061;28;20072;-72
2022/05/29 08:56:18;;;;;;;12.50;4.68;;;15.20;99.90;;;;;;5053167;28;20107;-72
2022/05/29 08:59:10;;;;;;;9.40;4.40;;;15.20;99.90;;;;;;5062704;28;20477;-72
2022/05/29 09:02:04;;;;;;;9.82;3.90;;;15.20;99.90;;;;;;5059562;28;20020;-71
2022/05/29 09:04:46;;;;;;;11.70;4.50;;;15.10;99.90;;;;;;5075283;28;20031;-71
2022/05/29 09:07:18;;;;;;;11.15;4.25;;;15.10;99.90;;;;;;5074590;28;20024;-72
2022/05/29 09:09:46;;;;;;;4.88;3.42;;;14.90;99.90;;;;;;5074925;28;20032;-73
2022/05/29 09:12:24;;;;;;;10.25;3.63;;;14.80;99.90;;;;;;5057555;28;20087;-72
2022/05/29 09:14:55;;;;;;;10.45;3.83;;;14.70;99.90;;;;;;5055020;28;20033;-72
2022/05/29 09:17:35;;;;;;;10.85;3.95;;;14.80;99.90;;;;;;5068746;28;20090;-72
2022/05/29 09:20:11;;;;;;;6.38;3.53;;;15.00;99.90;;;;;;5074497;28;20473;-72
2022/05/29 09:22:44;;;;;;;10.88;3.33;;;15.00;99.90;;;;;;5074882;28;20036;-72
2022/05/29 09:25:37;;;;;;;6.78;2.67;;;15.20;99.90;;;;;;5074738;28;20032;-72
2022/05/29 09:28:05;;;;;;;8.18;2.78;;;15.30;99.90;;;;;;5073669;28;20033;-72
2022/05/29 09:30:31;;;;;;;6.32;2.53;;;15.20;99.90;;;;;;5073053;28;20374;-72
2022/05/29 09:33:07;;;;;;;5.38;2.40;;;15.30;99.90;;;;;;5074685;28;20041;-71
2022/05/29 09:35:39;;;;;;;7.65;3.15;;;15.40;99.90;;;;;;5073928;28;20032;-72
2022/05/29 09:38:25;;;;;;;7.20;1.85;;;15.50;99.90;;;;;;5074645;28;20040;-72
2022/05/29 09:41:12;;;;;;;7.78;2.75;;;15.50;99.90;;;;;;5064912;28;20094;-71
2022/05/29 09:43:37;;;;;;;6.68;2.45;;;15.70;99.90;;;;;;5054468;28;20036;-71
2022/05/29 09:46:22;;;;;;;6.78;2.25;;;15.80;99.90;;;;;;5054514;28;20051;-72
2022/05/29 09:51:44;;;;;;;6.60;2.42;;;16.00;99.90;;;;;;5065425;28;20085;-72
2022/05/29 09:54:22;;;;;;;12.38;2.13;;;16.10;99.90;;;;;;5074050;28;20481;-72
2022/05/29 09:56:48;;;;;;;9.57;2.03;;;16.40;99.90;;;;;;5074224;28;20028;-72
2022/05/29 09:59:19;;;;;;;7.00;1.70;;;16.60;99.90;;;;;;5073837;28;20469;-72
2022/05/29 10:01:46;;;;;;;8.70;2.20;;;16.60;99.90;;;;;;5061236;28;20025;-72
2022/05/29 10:04:37;;;;;;;7.53;2.08;;;16.50;99.90;;;;;;5053425;28;20064;-70
2022/05/29 10:07:18;;;;;;;3.97;2.13;;;16.30;99.90;;;;;;5052703;28;20108;-71
2022/05/29 10:10:03;;;;;;;7.70;2.28;;;16.20;99.90;;;;;;5053326;28;20370;-71
2022/05/29 10:12:45;;;;;;;5.80;2.70;;;16.00;99.90;;;;;;5054011;28;20044;-71
2022/05/29 10:15:36;;;;;;;5.27;2.07;;;15.80;99.90;;;;;;5052598;28;20404;-72
2022/05/29 10:18:10;;;;;;;9.05;3.08;;;15.70;99.90;;;;;;5066825;28;20566;-73
2022/05/29 10:20:36;;;;;;;8.93;3.13;;;15.70;99.90;;;;;;5072660;28;20020;-72
2022/05/29 10:23:34;;;;;;;9.55;3.22;;;15.80;99.90;;;;;;5073798;28;20040;-72
2022/05/29 10:26:09;;;;;;;6.38;2.90;;;15.50;99.90;;;;;;5053634;28;20090;-72
2022/05/29 10:28:37;;;;;;;9.00;3.05;;;15.40;99.90;;;;;;5070532;28;20420;-74
2022/05/29 10:31:08;;;;;;;9.02;3.33;;;15.60;99.90;;;;;;5068675;28;20424;-69
2022/05/29 10:33:35;;;;;;;7.13;2.67;;;15.50;99.90;;;;;;5066460;28;20033;-69
2022/05/29 10:36:08;;;;;;;7.72;3.28;;;15.50;99.90;;;;;;5072937;28;20111;-69
2022/05/29 10:38:34;;;;;;;5.15;2.08;;;15.80;99.90;;;;;;5070749;28;20115;-69
2022/05/29 10:41:01;;;;;;;3.88;1.30;;;15.80;99.90;;;;;;5072450;28;20107;-70
2022/05/29 10:43:37;;;;;;;2.08;0.80;;;15.80;99.90;;;;;;5072629;28;20036;-70
2022/05/29 10:46:24;;;;;;;3.45;1.20;;;15.70;99.90;;;;;;5072788;28;20063;-69
2022/05/29 10:49:24;;;;;;;6.20;1.10;;;15.80;99.90;;;;;;5062838;28;20045;-69
2022/05/29 10:52:16;;;;;;;2.35;1.20;;;15.80;99.90;;;;;;5061565;28;20055;-69
2022/05/29 10:55:07;;;;;;;2.58;1.15;;;16.00;99.90;;;;;;5062179;28;20048;-69
2022/05/29 10:58:03;;;;;;;1.33;0.90;;;16.10;99.90;;;;;;5065594;28;20032;-68
2022/05/29 11:03:17;;;;;;;2.50;1.05;;;16.20;99.90;;;;;;5069971;28;20124;-69
2022/05/29 11:04:48;;;;;;;1.23;0.70;;;16.70;99.90;;;;;;5052655;28;20486;-69
2022/05/29 11:07:51;;;;;;;2.25;0.82;;;17.20;99.90;;;;;;5050872;28;20422;-69
2022/05/29 11:10:36;;;;;;;2.28;0.75;;;17.30;99.90;;;;;;5055350;28;20500;-68
2022/05/29 11:13:32;;;;;;;2.17;0.68;;;17.40;99.90;;;;;;5059801;28;20072;-68
2022/05/29 11:16:09;;;;;;;1.10;0.63;;;17.40;99.90;;;;;;5062654;28;20071;-68
2022/05/29 11:18:44;;;;;;;1.65;0.60;;;17.60;99.90;;;;;;5061558;28;20537;-68
2022/05/29 11:21:09;;;;;;;2.25;0.80;;;17.70;99.90;;;;;;5060448;28;20055;-68
2022/05/29 11:23:47;;;;;;;1.85;1.30;;;18.00;99.90;;;;;;5061005;28;20481;-68
2022/05/29 11:26:50;;;;;;;2.42;0.90;;;18.20;99.90;;;;;;5062953;28;20477;-68
2022/05/29 11:29:39;;;;;;;1.98;1.10;;;18.10;99.90;;;;;;5060347;28;20047;-68
2022/05/29 11:32:14;;;;;;;2.00;1.08;;;18.30;99.90;;;;;;5058685;28;20044;-68
2022/05/29 11:34:48;;;;;;;2.15;1.23;;;18.20;99.90;;;;;;5062886;28;20040;-68
2022/05/29 11:37:23;;;;;;;5.25;1.30;;;17.90;99.90;;;;;;5060334;28;20574;-68
2022/05/29 11:39:53;;;;;;;2.58;1.00;;;17.30;99.90;;;;;;5060089;28;20037;-72
2022/05/29 11:42:34;;;;;;;20.65;4.20;;;16.50;99.90;;;;;;5055955;28;20500;-74
2022/05/29 11:45:02;;;;;;;30.08;3.45;;;16.00;99.90;;;;;;5051874;28;20041;-75
2022/05/29 11:53:44;;;;;;;3.70;1.30;;;14.80;99.90;;;;;;5063788;28;20039;-73
2022/05/29 11:56:21;;;;;;;4.47;1.08;;;14.80;99.90;;;;;;5060256;28;20044;-73
2022/05/29 11:59:14;;;;;;;4.60;1.10;;;14.60;99.90;;;;;;5062984;28;20029;-72
2022/05/29 12:01:44;;;;;;;2.22;1.10;;;14.50;99.90;;;;;;5051150;28;20049;-72
2022/05/29 12:04:27;;;;;;;6.38;1.17;;;14.40;99.90;;;;;;5058018;28;20536;-73
2022/05/29 12:06:57;;;;;;;;;;;14.20;99.90;;;;;;5072450;28;20099;-72
2022/05/29 12:09:52;;;;;;;0.85;0.85;;;13.90;99.90;;;;;;5066845;28;19916;-72
2022/05/29 12:12:34;;;;;;;3.05;1.20;;;13.80;99.90;;;;;;5062581;28;20489;-72
2022/05/29 12:15:07;;;;;;;2.67;1.17;;;13.80;99.90;;;;;;5074977;28;20055;-73
2022/05/29 12:17:57;;;;;;;4.38;1.80;;;13.90;99.90;;;;;;5060779;28;20083;-71
2022/05/29 12:20:42;;;;;;;2.35;1.23;;;14.10;99.90;;;;;;5078256;28;20124;-71
2022/05/29 12:23:26;;;;;;;1.90;1.38;;;14.30;99.90;;;;;;5063171;28;20599;-72
2022/05/29 12:26:18;;;;;;;3.22;1.50;;;14.40;99.90;;;;;;5064229;28;20033;-71
2022/05/29 12:29:02;;;;;;;3.97;1.23;;;14.40;99.90;;;;;;5061314;28;20112;-72
2022/05/29 12:31:36;;;;;;;2.33;1.48;;;14.50;99.90;;;;;;5064754;28;20468;-72
2022/05/29 12:34:03;;;;;;;3.30;1.30;;;14.50;99.90;;;;;;5062044;28;20047;-72
2022/05/29 12:37:09;;;;;;;4.65;2.10;;;14.50;99.90;;;;;;5068669;28;20025;-72
2022/05/29 12:40:09;;;;;;;3.33;1.80;;;14.60;99.90;;;;;;5067617;28;20017;-71
2022/05/29 12:42:59;;;;;;;7.43;1.83;;;14.60;99.90;;;;;;5066079;28;20181;-71
2022/05/29 12:45:37;;;;;;;5.60;1.83;;;14.50;99.90;;;;;;5064160;28;20048;-70
2022/05/29 12:48:44;;;;;;;2.95;1.70;;;14.70;99.90;;;;;;5072834;28;20037;-70
2022/05/29 12:51:22;;;;;;;2.85;1.50;;;14.70;99.90;;;;;;5074430;28;20037;-70
2022/05/29 12:54:06;;;;;;;3.97;1.73;;;14.80;99.90;;;;;;5070884;28;20028;-70
2022/05/29 12:56:38;;;;;;;3.15;1.40;;;14.80;99.90;;;;;;5066074;28;20032;-70
2022/05/29 12:59:16;;;;;;;2.22;1.60;;;14.70;99.90;;;;;;5064343;28;20028;-71
2022/05/29 13:01:44;;;;;;;5.20;1.67;;;14.80;99.90;;;;;;5067339;28;20036;-71
2022/05/29 13:04:30;;;;;;;4.90;2.47;;;14.80;99.90;;;;;;5063460;28;20033;-70
2022/05/29 13:07:14;;;;;;;4.55;2.00;;;14.80;99.90;;;;;;5080551;28;20050;-70
2022/05/29 13:09:58;;;;;;;2.38;1.52;;;15.00;99.90;;;;;;5062258;28;20440;-69
2022/05/29 13:12:32;;;;;;;2.65;1.50;;;15.10;99.90;;;;;;5079866;28;20040;-69
2022/05/29 13:15:04;;;;;;;2.70;1.70;;;15.30;99.90;;;;;;5093973;28;20043;-69
2022/05/29 13:17:33;;;;;;;5.38;2.40;;;15.40;99.90;;;;;;5064380;28;20107;-69
2022/05/29 13:20:09;;;;;;;2.97;1.95;;;15.50;99.90;;;;;;5053739;28;20477;-69
2022/05/29 13:23:04;;;;;;;5.43;2.20;;;15.50;99.90;;;;;;5053987;28;20025;-69
2022/05/29 13:25:56;;;;;;;4.47;2.58;;;15.70;99.90;;;;;;5069333;28;20086;-69
2022/05/29 13:29:04;;;;;;;6.13;2.88;;;15.80;99.90;;;;;;5062543;28;20059;-69
2022/05/29 13:31:33;;;;;;;4.07;2.35;;;15.90;99.90;;;;;;5070458;28;20040;-69
2022/05/29 13:34:20;;;;;;;5.47;2.65;;;15.90;99.90;;;;;;5067982;28;20131;-69
2022/05/29 13:36:50;;;;;;;4.45;2.75;;;15.90;99.90;;;;;;5071351;28;20029;-69
2022/05/29 13:39:50;;;;;;;4.88;2.65;;;16.00;99.90;;;;;;5063748;28;20024;-69
2022/05/29 13:42:29;;;;;;;5.57;2.80;;;16.00;99.90;;;;;;5065410;28;20025;-69
2022/05/29 13:44:56;;;;;;;6.38;3.45;;;15.90;99.90;;;;;;5072097;28;20509;-69
2022/05/29 13:47:31;;;;;;;7.82;3.25;;;15.90;99.90;;;;;;5060200;28;20123;-69
2022/05/29 13:50:05;;;;;;;10.80;3.45;;;15.70;99.90;;;;;;5060785;28;20032;-67
2022/05/29 13:52:51;;;;;;;3.58;2.50;;;15.90;99.90;;;;;;5069396;28;20032;-70